Date,TemperatureHighF,TemperatureAvgF,TemperatureLowF,DewpointHighF,DewpointAvgF,DewpointLowF,HumidityHigh,HumidityAvg,HumidityLow,PressureMaxIn,PressureMinIn,WindSpeedMaxMPH,WindSpeedAvgMPH,GustSpeedMaxMPH,PrecipitationSumIn
2013-3-1,41,38,35,36,34,31,96,87,76,29.72,29.56,18,4,22,0.00
2013-3-2,41,37,34,32,31,29,85,78,68,29.73,29.68,13,2,14,0.00
2013-3-3,40,36,33,33,30,28,89,78,68,29.68,29.62,8,1,9,0.00
2013-3-4,42,36,30,30,27,24,92,71,52,29.75,29.61,16,3,20,0.00
2013-3-5,41,36,31,37,31,25,94,81,71,30.09,29.75,19,5,23,0.00
2013-3-6,42,38,32,36,35,31,96,90,77,30.12,29.98,22,4,27,0.01
2013-3-7,37,36,34,35,34,32,96,95,91,29.98,29.90,28,11,33,0.54
2013-3-8,41,35,32,36,33,31,97,93,75,30.12,29.88,28,10,30,0.44
2013-3-9,39,36,35,33,32,31,91,85,77,30.37,30.11,23,8,25,0.00
2013-3-10,41,37,34,34,33,32,92,83,74,30.46,30.36,10,3,13,0.00
2013-3-11,44,40,36,40,37,33,94,90,85,30.39,30.25,15,5,17,0.00
2013-3-12,50,47,42,49,46,41,97,94,90,30.25,29.82,23,9,24,0.53
2013-3-13,53,46,36,52,38,24,97,75,48,29.84,29.73,13,3,14,0.41
2013-3-14,38,32,25,27,20,8,86,63,42,29.87,29.75,14,3,16,0.00
2013-3-15,38,31,21,29,16,8,76,56,34,29.94,29.73,18,4,19,0.00
2013-3-16,38,34,28,29,23,18,81,64,50,29.93,29.75,12,2,14,0.00
2013-3-17,40,32,24,29,20,13,93,62,42,30.35,29.92,16,3,18,0.00
2013-3-18,35,30,24,26,18,7,73,60,44,30.50,30.30,15,4,16,0.00
2013-3-19,44,37,31,44,36,28,97,95,85,30.27,29.53,24,5,30,0.66
2013-3-20,41,34,27,30,24,20,94,70,44,29.89,29.72,23,4,26,0.00
2013-3-21,38,32,25,31,28,23,96,84,62,29.89,29.64,17,4,19,0.00
2013-3-22,40,33,27,33,27,22,96,81,51,29.80,29.64,12,2,13,0.10
2013-3-23,44,36,30,28,22,19,77,58,38,29.83,29.69,17,3,20,0.00
2013-3-24,44,37,29,30,25,21,87,63,49,29.89,29.80,12,2,15,0.00
2013-3-25,46,37,28,37,31,25,94,78,53,29.81,29.49,15,3,24,0.00
2013-3-26,45,39,35,34,30,25,90,72,47,29.75,29.50,22,6,27,0.00